Time;durP1;ratioP1;P1;durP2;ratioP2;P2;SDS_P1;SDS_P2;PMS_P1;PMS_P2;Temp;Humidity;BMP_temperature;BMP_pressure;BME280_temperature;BME280_humidity;BME280_pressure;Samples;Min_cycle;Max_cycle;Signal;HPM_P1;HPM_P2
2023/04/04 00:02:33;;;;;;;5.85;2.47;;;;;;;;;;4988601;28;20134;-52
2023/04/04 00:05:07;;;;;;;4.43;2.20;;;;;;;;;;4971757;28;20054;-48
2023/04/04 00:07:34;;;;;;;4.50;2.00;;;;;;;;;;4984348;28;20594;-53
2023/04/04 00:10:01;;;;;;;6.47;2.30;;;;;;;;;;4966534;28;20106;-48
2023/04/04 00:12:36;;;;;;;4.60;1.67;;;;;;;;;;4985758;28;20058;-50
2023/04/04 00:15:03;;;;;;;;;;;;;;;;;;4986270;28;20211;-46
2023/04/04 00:17:36;;;;;;;5.78;2.00;;;;;;;;;;4990134;28;19925;-49
2023/04/04 00:20:03;;;;;;;8.85;2.60;;;;;;;;;;4986662;28;20129;-51
2023/04/04 00:22:31;;;;;;;7.13;2.42;;;;;;;;;;4989156;28;20062;-48
2023/04/04 00:25:05;;;;;;;4.30;2.17;;;;;;;;;;4989266;28;20089;-50
2023/04/04 00:27:32;;;;;;;4.75;2.28;;;;;;;;;;4988157;28;20046;-55
2023/04/04 00:30:07;;;;;;;6.55;2.35;;;;;;;;;;4970646;28;20064;-50
2023/04/04 00:32:34;;;;;;;6.15;2.70;;;;;;;;;;4987619;28;20066;-50
2023/04/04 00:35:01;;;;;;;9.93;2.35;;;;;;;;;;4985499;28;20138;-55
2023/04/04 00:37:36;;;;;;;8.07;2.83;;;;;;;;;;4981038;28;20117;-55
2023/04/04 00:40:04;;;;;;;4.75;2.17;;;;;;;;;;4988679;28;20714;-54
2023/04/04 00:42:38;;;;;;;4.50;1.92;;;;;;;;;;4985976;28;20050;-61
2023/04/04 00:45:07;;;;;;;2.92;2.03;;;;;;;;;;4989337;28;20498;-61
2023/04/04 00:47:34;;;;;;;7.75;2.78;;;;;;;;;;4986356;28;20069;-61
2023/04/04 00:50:09;;;;;;;4.95;2.00;;;;;;;;;;4983504;28;20050;-62
2023/04/04 00:52:36;;;;;;;5.53;2.28;;;;;;;;;;4989146;28;20050;-62
2023/04/04 00:55:10;;;;;;;7.40;2.60;;;;;;;;;;4988335;28;20046;-61
2023/04/04 00:57:37;;;;;;;;;;;;;;;;;;4986412;28;20046;-61
2023/04/04 01:00:05;;;;;;;5.35;2.40;;;;;;;;;;4984600;28;20386;-60
2023/04/04 01:02:46;;;;;;;6.97;2.22;;;;;;;;;;4985951;28;20180;-61
2023/04/04 01:05:13;;;;;;;8.75;2.08;;;;;;;;;;4984851;28;20062;-50
2023/04/04 01:07:47;;;;;;;5.97;2.28;;;;;;;;;;4988862;28;20493;-56
2023/04/04 01:10:15;;;;;;;7.95;2.15;;;;;;;;;;4987844;28;20141;-62
2023/04/04 01:12:42;;;;;;;4.25;2.38;;;;;;;;;;4989372;28;20141;-63
2023/04/04 01:15:16;;;;;;;7.32;2.33;;;;;;;;;;4990997;28;20046;-62
2023/04/04 01:17:44;;;;;;;5.38;2.00;;;;;;;;;;4987097;28;20547;-63
2023/04/04 01:20:20;;;;;;;5.13;2.35;;;;;;;;;;4981917;28;20046;-62
2023/04/04 01:22:48;;;;;;;6.22;2.50;;;;;;;;;;4990083;28;20125;-62
2023/04/04 01:25:17;;;;;;;7.38;2.38;;;;;;;;;;4984139;28;20049;-55
2023/04/04 01:27:52;;;;;;;7.38;2.38;;;;;;;;;;4978330;28;20651;-52
2023/04/04 01:30:19;;;;;;;;;;;;;;;;;;4986109;28;20046;-52
2023/04/04 01:32:55;;;;;;;3.35;1.85;;;;;;;;;;4982587;28;19928;-55
2023/04/04 01:35:27;;;;;;;5.47;2.50;;;;;;;;;;4985176;28;20058;-56
2023/04/04 01:38:11;;;;;;;8.40;2.45;;;;;;;;;;4987141;28;20125;-54
2023/04/04 01:40:40;;;;;;;3.80;2.05;;;;;;;;;;4982048;28;20152;-50
2023/04/04 01:43:14;;;;;;;4.22;2.30;;;;;;;;;;4988792;28;20482;-52
2023/04/04 01:45:42;;;;;;;6.22;2.72;;;;;;;;;;4985531;28;20129;-53
2023/04/04 01:48:10;;;;;;;5.88;2.17;;;;;;;;;;4985027;28;20113;-53
2023/04/04 01:50:43;;;;;;;6.85;2.25;;;;;;;;;;4988999;28;20121;-53
2023/04/04 01:53:10;;;;;;;4.55;2.38;;;;;;;;;;4991494;28;20064;-57
2023/04/04 01:55:44;;;;;;;7.97;2.47;;;;;;;;;;4991846;28;20113;-50
2023/04/04 01:58:12;;;;;;;6.05;2.55;;;;;;;;;;4983960;28;20205;-45
2023/04/04 02:00:39;;;;;;;6.13;2.08;;;;;;;;;;4987334;28;20054;-50
2023/04/04 02:03:19;;;;;;;8.57;2.00;;;;;;;;;;4992584;28;20050;-49
2023/04/04 02:05:46;;;;;;;6.15;1.90;;;;;;;;;;4969263;28;20053;-47
2023/04/04 02:08:20;;;;;;;8.77;2.13;;;;;;;;;;4987293;28;20137;-50
2023/04/04 02:10:47;;;;;;;9.45;2.40;;;;;;;;;;4982366;28;20054;-62
2023/04/04 02:13:15;;;;;;;4.97;2.03;;;;;;;;;;4988570;28;20530;-63
2023/04/04 02:15:50;;;;;;;5.28;1.88;;;;;;;;;;4987587;28;20441;-53
2023/04/04 02:18:17;;;;;;;6.43;2.00;;;;;;;;;;4988195;28;20062;-52
2023/04/04 02:20:56;;;;;;;4.72;2.08;;;;;;;;;;4986994;28;20054;-52
2023/04/04 02:23:23;;;;;;;3.80;2.15;;;;;;;;;;4987001;28;20157;-51
2023/04/04 02:25:50;;;;;;;7.95;2.08;;;;;;;;;;4986461;28;20063;-50
2023/04/04 02:28:24;;;;;;;6.18;2.67;;;;;;;;;;4992537;28;20153;-55
2023/04/04 02:30:51;;;;;;;8.98;2.85;;;;;;;;;;4987886;28;20058;-51
2023/04/04 02:33:26;;;;;;;3.55;1.95;;;;;;;;;;4989956;28;20436;-50
2023/04/04 02:35:56;;;;;;;7.13;2.30;;;;;;;;;;4982460;28;20078;-46
2023/04/04 02:38:23;;;;;;;3.90;2.03;;;;;;;;;;4991580;28;20426;-46
2023/04/04 02:40:56;;;;;;;5.10;1.73;;;;;;;;;;4968530;28;20121;-50
2023/04/04 02:43:24;;;;;;;6.80;1.98;;;;;;;;;;4986771;28;20146;-61
2023/04/04 02:45:57;;;;;;;3.70;1.75;;;;;;;;;;4981735;28;20061;-61
2023/04/04 02:48:29;;;;;;;11.60;2.17;;;;;;;;;;4983394;28;20050;-61
2023/04/04 02:50:56;;;;;;;6.05;2.00;;;;;;;;;;4985494;28;20533;-61
2023/04/04 02:53:29;;;;;;;3.95;2.05;;;;;;;;;;4988966;28;20050;-61
2023/04/04 02:55:57;;;;;;;6.10;2.30;;;;;;;;;;4985395;28;20136;-61
2023/04/04 02:58:31;;;;;;;4.10;1.80;;;;;;;;;;4987614;28;20577;-61
2023/04/04 03:01:05;;;;;;;3.60;1.98;;;;;;;;;;4984040;28;21001;-61
2023/04/04 03:03:46;;;;;;;6.93;2.25;;;;;;;;;;4987517;28;20433;-61
2023/04/04 03:06:13;;;;;;;4.00;2.15;;;;;;;;;;4982727;28;20054;-61
2023/04/04 03:08:47;;;;;;;5.65;1.80;;;;;;;;;;4983666;28;20152;-52
2023/04/04 03:11:20;;;;;;;5.32;1.85;;;;;;;;;;4987967;28;20141;-50
2023/04/04 03:13:49;;;;;;;5.43;2.08;;;;;;;;;;4986065;28;20055;-52
2023/04/04 03:16:23;;;;;;;4.82;2.05;;;;;;;;;;4984449;28;20526;-50
2023/04/04 03:18:51;;;;;;;4.30;2.08;;;;;;;;;;4989565;28;20148;-55
2023/04/04 03:21:24;;;;;;;8.68;2.10;;;;;;;;;;4992575;28;20109;-53
2023/04/04 03:23:52;;;;;;;4.25;1.92;;;;;;;;;;4989236;28;20050;-55
2023/04/04 03:26:19;;;;;;;3.03;1.80;;;;;;;;;;4985008;28;20592;-52
2023/04/04 03:28:52;;;;;;;4.85;2.45;;;;;;;;;;4988467;28;20078;-62
2023/04/04 03:31:20;;;;;;;4.07;1.85;;;;;;;;;;4990200;28;20055;-52
2023/04/04 03:33:53;;;;;;;5.00;1.90;;;;;;;;;;4988367;28;20070;-52
2023/04/04 03:36:21;;;;;;;8.30;2.28;;;;;;;;;;4986960;28;20054;-51
2023/04/04 03:38:48;;;;;;;4.78;1.92;;;;;;;;;;4989376;28;20145;-51
2023/04/04 03:41:22;;;;;;;4.93;2.00;;;;;;;;;;4985070;28;20050;-54
2023/04/04 03:43:50;;;;;;;4.70;2.22;;;;;;;;;;4989310;28;20058;-54
2023/04/04 03:46:24;;;;;;;4.53;1.88;;;;;;;;;;4988383;28;20060;-57
2023/04/04 03:48:51;;;;;;;8.40;2.35;;;;;;;;;;4990498;28;20625;-56
2023/04/04 03:51:27;;;;;;;3.92;1.80;;;;;;;;;;4983188;28;20541;-54
2023/04/04 03:54:01;;;;;;;5.70;2.00;;;;;;;;;;4987557;28;20085;-53
2023/04/04 03:56:30;;;;;;;7.10;1.65;;;;;;;;;;4988092;28;20565;-60
2023/04/04 03:59:03;;;;;;;4.40;1.80;;;;;;;;;;4985625;28;20065;-51
2023/04/04 04:01:37;;;;;;;3.78;1.90;;;;;;;;;;4988704;28;20051;-49
2023/04/04 04:04:11;;;;;;;9.40;1.92;;;;;;;;;;4985353;28;20145;-51
2023/04/04 04:06:39;;;;;;;6.35;2.30;;;;;;;;;;4985738;28;20526;-51
2023/04/04 04:09:06;;;;;;;8.45;2.47;;;;;;;;;;4992444;28;20141;-53
2023/04/04 04:11:40;;;;;;;7.57;1.95;;;;;;;;;;4988283;28;20137;-54
2023/04/04 04:14:07;;;;;;;3.58;2.00;;;;;;;;;;4985262;28;20078;-54
2023/04/04 04:16:41;;;;;;;5.03;2.05;;;;;;;;;;4987340;28;20054;-50
2023/04/04 04:19:09;;;;;;;3.92;2.05;;;;;;;;;;4987216;28;20636;-49
2023/04/04 04:21:36;;;;;;;5.00;2.28;;;;;;;;;;4990808;28;20074;-51
2023/04/04 04:24:31;;;;;;;4.35;1.95;;;;;;;;;;4988519;28;20054;-51
2023/04/04 04:27:05;;;;;;;5.00;1.95;;;;;;;;;;4988905;28;20137;-60
2023/04/04 04:29:39;;;;;;;5.68;1.90;;;;;;;;;;4980755;28;20142;-61
2023/04/04 04:32:07;;;;;;;6.63;2.03;;;;;;;;;;4984242;28;20052;-60
2023/04/04 04:34:34;;;;;;;4.75;2.00;;;;;;;;;;4989394;28;20050;-61
2023/04/04 04:37:07;;;;;;;3.72;1.90;;;;;;;;;;4991671;28;20530;-61
2023/04/04 04:39:35;;;;;;;6.43;1.95;;;;;;;;;;4991504;28;20066;-61
2023/04/04 04:42:08;;;;;;;5.47;2.10;;;;;;;;;;4986206;28;20433;-49
2023/04/04 04:44:35;;;;;;;7.13;2.05;;;;;;;;;;4985177;28;20047;-61
2023/04/04 04:47:03;;;;;;;7.18;2.25;;;;;;;;;;4979654;28;20069;-61
2023/04/04 04:49:36;;;;;;;8.35;2.20;;;;;;;;;;4983063;28;20487;-62
2023/04/04 04:52:04;;;;;;;6.25;2.00;;;;;;;;;;4982320;28;20054;-61
2023/04/04 04:54:31;;;;;;;6.22;1.92;;;;;;;;;;4983528;28;20525;-61
2023/04/04 04:57:05;;;;;;;3.42;2.08;;;;;;;;;;4978399;28;20065;-61
2023/04/04 04:59:32;;;;;;;6.65;1.98;;;;;;;;;;4978433;28;20200;-60
2023/04/04 05:02:19;;;;;;;5.72;2.38;;;;;;;;;;4955004;28;20054;-48
2023/04/04 05:04:54;;;;;;;11.05;2.95;;;;;;;;;;4947422;28;20061;-48
2023/04/04 05:07:27;;;;;;;4.03;1.67;;;;;;;;;;4945161;28;20193;-50
2023/04/04 05:09:55;;;;;;;6.07;2.35;;;;;;;;;;4947343;28;20043;-46
2023/04/04 05:12:22;;;;;;;4.30;2.22;;;;;;;;;;4949168;28;20062;-45
2023/04/04 05:14:56;;;;;;;6.00;1.98;;;;;;;;;;4948307;28;20055;-48
2023/04/04 05:17:23;;;;;;;3.53;1.92;;;;;;;;;;4947054;28;20062;-52
2023/04/04 05:19:57;;;;;;;4.60;2.03;;;;;;;;;;4948605;28;20051;-48
2023/04/04 05:22:25;;;;;;;6.80;1.90;;;;;;;;;;4949359;28;20050;-52
2023/04/04 05:24:52;;;;;;;4.07;1.83;;;;;;;;;;4947119;28;20074;-50
2023/04/04 05:27:25;;;;;;;4.03;1.60;;;;;;;;;;4953584;28;20051;-51
2023/04/04 05:29:52;;;;;;;3.63;2.10;;;;;;;;;;4948528;28;20051;-51
2023/04/04 05:32:20;;;;;;;7.03;1.92;;;;;;;;;;4949460;28;20065;-53
2023/04/04 05:34:53;;;;;;;5.30;1.60;;;;;;;;;;4950364;28;20074;-51
2023/04/04 05:37:21;;;;;;;7.65;2.30;;;;;;;;;;4949723;28;20063;-57
2023/04/04 05:39:54;;;;;;;6.00;1.95;;;;;;;;;;4950425;28;20496;-56
2023/04/04 05:42:22;;;;;;;4.93;2.30;;;;;;;;;;4946908;28;20083;-57
2023/04/04 05:44:49;;;;;;;3.80;2.05;;;;;;;;;;4947972;28;20483;-55
2023/04/04 05:47:22;;;;;;;8.77;2.35;;;;;;;;;;4946230;28;20062;-56
2023/04/04 05:49:49;;;;;;;2.65;1.73;;;;;;;;;;4948105;28;20066;-51
2023/04/04 05:52:23;;;;;;;5.63;1.95;;;;;;;;;;4947444;28;20060;-56
2023/04/04 05:54:50;;;;;;;4.40;2.17;;;;;;;;;;4965733;28;20122;-48
2023/04/04 05:57:18;;;;;;;2.47;1.70;;;;;;;;;;4949184;28;20173;-47
2023/04/04 05:59:51;;;;;;;8.75;1.95;;;;;;;;;;4951284;28;20174;-49
2023/04/04 06:02:25;;;;;;;4.38;2.22;;;;;;;;;;4976909;28;20054;-47
2023/04/04 06:05:00;;;;;;;3.78;2.20;;;;;;;;;;4982957;28;20510;-56
2023/04/04 06:07:27;;;;;;;3.38;1.67;;;;;;;;;;4987735;28;20093;-50
2023/04/04 06:09:54;;;;;;;5.75;1.60;;;;;;;;;;4989309;28;20113;-62
2023/04/04 06:12:28;;;;;;;4.65;2.10;;;;;;;;;;4969504;28;20518;-62
2023/04/04 06:14:55;;;;;;;6.40;1.95;;;;;;;;;;4988545;28;20549;-62
2023/04/04 06:17:30;;;;;;;6.22;2.28;;;;;;;;;;4988189;28;20495;-62
2023/04/04 06:19:57;;;;;;;3.17;1.83;;;;;;;;;;4968702;28;20157;-62
2023/04/04 06:22:24;;;;;;;5.82;1.95;;;;;;;;;;4990623;28;20498;-62
2023/04/04 06:24:57;;;;;;;4.25;2.00;;;;;;;;;;4989707;28;20068;-62
2023/04/04 06:27:25;;;;;;;5.22;1.80;;;;;;;;;;4986544;28;20049;-61
2023/04/04 06:29:52;;;;;;;8.77;1.88;;;;;;;;;;4989504;28;20046;-63
2023/04/04 06:32:26;;;;;;;6.30;1.90;;;;;;;;;;4987165;28;20050;-61
2023/04/04 06:34:54;;;;;;;7.13;1.98;;;;;;;;;;4987755;28;20137;-62
2023/04/04 06:37:27;;;;;;;6.03;1.98;;;;;;;;;;4993670;28;20145;-53
2023/04/04 06:39:55;;;;;;;5.03;2.22;;;;;;;;;;4992505;28;20077;-50
2023/04/04 06:42:22;;;;;;;6.68;2.30;;;;;;;;;;4987904;28;20153;-53
2023/04/04 06:44:56;;;;;;;9.70;2.38;;;;;;;;;;4990304;28;20084;-56
2023/04/04 06:47:23;;;;;;;7.82;2.30;;;;;;;;;;4988701;28;20060;-57
2023/04/04 06:49:57;;;;;;;5.38;2.60;;;;;;;;;;4992906;28;20112;-56
2023/04/04 06:52:25;;;;;;;6.25;2.92;;;;;;;;;;4993930;28;20149;-54
2023/04/04 06:54:52;;;;;;;;;;;;;;;;;;4991974;28;20062;-53
2023/04/04 06:57:26;;;;;;;7.78;2.70;;;;;;;;;;4989063;28;20020;-49
2023/04/04 06:59:54;;;;;;;10.80;2.85;;;;;;;;;;4990521;28;20509;-49
2023/04/04 07:02:34;;;;;;;8.88;2.97;;;;;;;;;;4986245;28;20146;-53
2023/04/04 07:05:03;;;;;;;6.13;3.00;;;;;;;;;;4991092;28;20626;-54
2023/04/04 07:07:36;;;;;;;6.78;2.53;;;;;;;;;;4987179;28;20565;-53
2023/04/04 07:10:04;;;;;;;7.50;3.03;;;;;;;;;;4985487;28;20461;-53
2023/04/04 07:12:32;;;;;;;8.73;2.40;;;;;;;;;;4987028;28;20509;-54
2023/04/04 07:15:06;;;;;;;11.32;2.72;;;;;;;;;;4989864;28;20050;-54
2023/04/04 07:17:36;;;;;;;5.43;2.28;;;;;;;;;;4989846;28;20064;-55
2023/04/04 07:20:11;;;;;;;5.75;2.40;;;;;;;;;;4986915;28;20387;-51
2023/04/04 07:22:38;;;;;;;8.75;3.03;;;;;;;;;;4992892;28;20046;-52
2023/04/04 07:25:06;;;;;;;5.95;2.45;;;;;;;;;;4990174;28;20399;-55
2023/04/04 07:27:41;;;;;;;7.70;2.03;;;;;;;;;;4992244;28;20438;-51
2023/04/04 07:30:08;;;;;;;9.35;2.85;;;;;;;;;;4985982;28;20122;-57
2023/04/04 07:32:37;;;;;;;6.82;2.40;;;;;;;;;;4986049;28;20589;-62
2023/04/04 07:35:11;;;;;;;5.65;2.63;;;;;;;;;;4985504;28;20517;-54
2023/04/04 07:37:39;;;;;;;;;;;;;;;;;;4990787;28;20051;-57
2023/04/04 07:40:12;;;;;;;7.20;2.40;;;;;;;;;;4974886;28;19929;-54
2023/04/04 07:42:46;;;;;;;6.63;2.30;;;;;;;;;;4987980;28;20537;-54
2023/04/04 07:45:21;;;;;;;6.15;2.20;;;;;;;;;;4987467;28;20056;-55
2023/04/04 07:47:48;;;;;;;7.18;2.45;;;;;;;;;;4988959;28;20046;-56
2023/04/04 07:50:15;;;;;;;8.90;2.55;;;;;;;;;;4991946;28;20054;-51
2023/04/04 07:52:57;;;;;;;6.50;2.45;;;;;;;;;;4990068;28;20524;-52
2023/04/04 07:55:25;;;;;;;9.48;3.10;;;;;;;;;;4988783;28;20653;-50
2023/04/04 07:57:58;;;;;;;6.28;2.30;;;;;;;;;;4988456;28;20061;-52
2023/04/04 08:00:26;;;;;;;8.60;3.65;;;;;;;;;;4992238;28;20105;-53
2023/04/04 08:03:06;;;;;;;8.85;2.85;;;;;;;;;;4989570;28;20145;-52
2023/04/04 08:05:33;;;;;;;10.43;2.70;;;;;;;;;;4987947;28;20058;-54
2023/04/04 08:08:07;;;;;;;8.63;2.72;;;;;;;;;;4991429;28;20057;-50
2023/04/04 08:10:35;;;;;;;12.38;2.90;;;;;;;;;;4990271;28;20050;-53
2023/04/04 08:13:03;;;;;;;11.15;3.35;;;;;;;;;;4986678;28;20057;-50
2023/04/04 08:15:36;;;;;;;8.55;3.42;;;;;;;;;;4987022;28;20067;-55
2023/04/04 08:18:03;;;;;;;8.85;2.90;;;;;;;;;;4989677;28;20426;-48
2023/04/04 08:20:31;;;;;;;7.00;2.55;;;;;;;;;;4992676;28;20458;-49
2023/04/04 08:23:26;;;;;;;7.55;2.17;;;;;;;;;;4989465;28;20143;-51
2023/04/04 08:26:21;;;;;;;12.55;2.42;;;;;;;;;;4989131;28;20501;-47
2023/04/04 08:28:54;;;;;;;9.65;2.67;;;;;;;;;;4988549;28;20076;-51
2023/04/04 08:31:29;;;;;;;7.10;2.47;;;;;;;;;;4992479;28;20058;-55
2023/04/04 08:34:24;;;;;;;6.18;2.15;;;;;;;;;;4990277;28;20588;-57
2023/04/04 08:37:14;;;;;;;6.13;2.00;;;;;;;;;;4986239;28;21719;-57
2023/04/04 08:39:48;;;;;;;4.93;1.92;;;;;;;;;;4991755;28;20084;-55
2023/04/04 08:42:16;;;;;;;;;;;;;;;;;;4991782;28;20490;-57
2023/04/04 08:44:44;;;;;;;9.05;2.75;;;;;;;;;;4990865;28;19925;-58
2023/04/04 08:47:17;;;;;;;5.97;1.90;;;;;;;;;;4991798;28;20046;-62
2023/04/04 08:49:46;;;;;;;6.68;2.30;;;;;;;;;;4991858;28;20058;-61
2023/04/04 08:52:23;;;;;;;7.75;2.45;;;;;;;;;;4988790;28;20132;-62
2023/04/04 08:54:51;;;;;;;4.25;1.85;;;;;;;;;;4985385;28;20050;-62
2023/04/04 08:57:18;;;;;;;7.63;2.00;;;;;;;;;;4988504;28;20133;-57
2023/04/04 08:59:53;;;;;;;8.65;1.75;;;;;;;;;;4986624;28;20128;-59
2023/04/04 09:02:28;;;;;;;7.63;2.42;;;;;;;;;;4986291;28;20088;-60
2023/04/04 09:05:03;;;;;;;7.63;1.65;;;;;;;;;;4989815;28;20046;-60
2023/04/04 09:07:34;;;;;;;7.57;1.52;;;;;;;;;;4989426;28;20790;-59
2023/04/04 09:10:07;;;;;;;4.00;1.85;;;;;;;;;;4989607;28;20092;-54
2023/04/04 09:12:43;;;;;;;4.95;1.60;;;;;;;;;;4990847;28;20062;-56
2023/04/04 09:15:11;;;;;;;7.82;1.70;;;;;;;;;;4989771;28;20506;-59
2023/04/04 09:17:44;;;;;;;4.63;1.50;;;;;;;;;;4987385;28;20153;-59
2023/04/04 09:20:30;;;;;;;2.13;1.42;;;;;;;;;;4986502;28;20047;-60
2023/04/04 09:23:25;;;;;;;4.22;1.75;;;;;;;;;;4987462;28;20538;-60
2023/04/04 09:25:53;;;;;;;4.07;1.67;;;;;;;;;;4990058;28;20086;-61
2023/04/04 09:28:31;;;;;;;7.60;1.70;;;;;;;;;;4989887;28;20058;-56
2023/04/04 09:31:00;;;;;;;3.78;1.20;;;;;;;;;;4987996;28;20046;-56
2023/04/04 09:33:35;;;;;;;7.90;1.70;;;;;;;;;;4986622;28;20054;-54
2023/04/04 09:36:11;;;;;;;3.92;1.40;;;;;;;;;;4987419;28;20069;-56
2023/04/04 09:38:47;;;;;;;5.85;1.80;;;;;;;;;;4990675;28;20058;-55
2023/04/04 09:41:15;;;;;;;3.58;1.42;;;;;;;;;;4990258;28;20148;-55
2023/04/04 09:43:46;;;;;;;4.30;1.63;;;;;;;;;;4991685;28;20105;-62
2023/04/04 09:46:20;;;;;;;5.70;1.52;;;;;;;;;;4987525;28;20046;-62
2023/04/04 09:48:50;;;;;;;5.30;1.90;;;;;;;;;;4985432;28;20050;-62
2023/04/04 09:51:18;;;;;;;3.80;1.70;;;;;;;;;;4989474;28;20129;-62
2023/04/04 09:53:52;;;;;;;2.53;1.20;;;;;;;;;;4991709;28;20513;-58
2023/04/04 09:56:19;;;;;;;3.17;1.58;;;;;;;;;;4988550;28;20880;-64
2023/04/04 09:58:52;;;;;;;4.57;1.83;;;;;;;;;;4990543;28;20060;-63
2023/04/04 10:01:42;;;;;;;3.55;1.55;;;;;;;;;;4985931;28;20100;-64
2023/04/04 10:04:15;;;;;;;5.75;1.65;;;;;;;;;;4988207;28;20065;-64
2023/04/04 10:06:43;;;;;;;5.50;1.58;;;;;;;;;;4987004;28;20842;-64
2023/04/04 10:09:10;;;;;;;4.68;1.40;;;;;;;;;;4986492;28;20133;-64
2023/04/04 10:11:44;;;;;;;5.88;1.58;;;;;;;;;;4996119;28;20168;-56
2023/04/04 10:14:12;;;;;;;1.50;1.10;;;;;;;;;;4988651;28;20094;-58
2023/04/04 10:16:45;;;;;;;5.72;1.73;;;;;;;;;;4994613;28;20081;-58
2023/04/04 10:19:16;;;;;;;3.08;1.58;;;;;;;;;;4991970;28;20136;-55
2023/04/04 10:21:51;;;;;;;6.63;1.80;;;;;;;;;;4988212;28;20133;-64
2023/04/04 10:24:18;;;;;;;;;;;;;;;;;;4990676;28;20113;-56
2023/04/04 10:26:45;;;;;;;5.22;2.50;;;;;;;;;;4988210;28;19936;-59
2023/04/04 10:29:20;;;;;;;5.88;2.20;;;;;;;;;;4990036;28;20057;-58
2023/04/04 10:31:49;;;;;;;5.22;1.83;;;;;;;;;;4990906;28;20138;-57
2023/04/04 10:34:31;;;;;;;2.63;1.90;;;;;;;;;;4989702;28;20136;-59
2023/04/04 10:37:08;;;;;;;6.47;2.20;;;;;;;;;;4993353;28;20394;-56
2023/04/04 10:39:50;;;;;;;6.57;1.77;;;;;;;;;;4988839;28;20046;-64
2023/04/04 10:42:18;;;;;;;7.03;1.95;;;;;;;;;;4989302;28;20056;-64
2023/04/04 10:44:53;;;;;;;4.95;2.08;;;;;;;;;;4985499;28;20138;-64
2023/04/04 10:47:20;;;;;;;;;;;;;;;;;;4989395;28;20129;-64
2023/04/04 10:49:55;;;;;;;5.13;2.10;;;;;;;;;;4992004;28;19922;-55
2023/04/04 10:52:27;;;;;;;6.70;1.98;;;;;;;;;;4987956;28;20429;-61
2023/04/04 10:55:03;;;;;;;4.47;1.90;;;;;;;;;;4988899;28;20054;-57
2023/04/04 10:57:31;;;;;;;4.70;1.60;;;;;;;;;;4994037;28;20058;-56
2023/04/04 11:00:09;;;;;;;7.05;2.90;;;;;;;;;;4989665;28;20436;-56
2023/04/04 11:02:51;;;;;;;6.28;2.50;;;;;;;;;;4988538;28;20088;-55
2023/04/04 11:05:30;;;;;;;6.25;2.70;;;;;;;;;;4992248;28;20058;-55
2023/04/04 11:08:00;;;;;;;6.57;2.72;;;;;;;;;;4988193;28;20057;-52
2023/04/04 11:10:36;;;;;;;6.40;2.67;;;;;;;;;;4990994;28;20061;-48
2023/04/04 11:13:12;;;;;;;5.28;2.63;;;;;;;;;;4986066;28;20137;-53
2023/04/04 11:15:56;;;;;;;6.72;2.22;;;;;;;;;;4988032;28;20137;-51
2023/04/04 11:18:44;;;;;;;7.35;1.90;;;;;;;;;;4990353;28;20082;-63
2023/04/04 11:21:15;;;;;;;2.45;1.35;;;;;;;;;;4969012;28;20473;-56
2023/04/04 11:23:49;;;;;;;4.07;1.73;;;;;;;;;;4987716;28;20050;-54
2023/04/04 11:26:27;;;;;;;4.25;1.77;;;;;;;;;;4983294;28;20050;-58
2023/04/04 11:29:04;;;;;;;6.07;2.33;;;;;;;;;;4991593;28;20142;-52
2023/04/04 11:31:44;;;;;;;6.20;2.10;;;;;;;;;;4984810;28;20081;-56
2023/04/04 11:34:12;;;;;;;5.03;1.92;;;;;;;;;;4983201;28;20061;-51
2023/04/04 11:36:51;;;;;;;7.25;1.90;;;;;;;;;;4990510;28;20056;-60
2023/04/04 11:39:25;;;;;;;4.45;1.60;;;;;;;;;;4987171;28;20058;-60
2023/04/04 11:42:02;;;;;;;5.72;1.92;;;;;;;;;;4989401;28;20061;-60
2023/04/04 11:44:30;;;;;;;3.05;1.48;;;;;;;;;;4991208;28;20046;-60
2023/04/04 11:47:10;;;;;;;6.78;1.75;;;;;;;;;;4989608;28;20521;-60
2023/04/04 11:49:40;;;;;;;4.10;1.77;;;;;;;;;;4983424;28;20117;-59
2023/04/04 11:52:15;;;;;;;5.13;1.60;;;;;;;;;;4992007;28;20061;-60
2023/04/04 11:54:43;;;;;;;3.35;1.35;;;;;;;;;;4990850;28;20153;-60
2023/04/04 11:57:18;;;;;;;4.90;1.65;;;;;;;;;;4987681;28;20088;-61
2023/04/04 11:59:46;;;;;;;4.97;1.42;;;;;;;;;;4987972;28;20061;-62
2023/04/04 12:02:30;;;;;;;5.30;1.52;;;;;;;;;;4988590;28;20050;-61
2023/04/04 12:04:58;;;;;;;3.35;1.30;;;;;;;;;;4989869;28;20062;-53
2023/04/04 12:07:34;;;;;;;4.95;1.45;;;;;;;;;;4988083;28;20891;-54
2023/04/04 12:10:01;;;;;;;4.53;1.52;;;;;;;;;;4984561;28;20084;-57
2023/04/04 12:12:28;;;;;;;6.22;1.58;;;;;;;;;;4985419;28;20445;-56
2023/04/04 12:15:02;;;;;;;2.42;1.60;;;;;;;;;;4989903;28;20573;-62
2023/04/04 12:17:44;;;;;;;2.58;1.23;;;;;;;;;;4989620;28;20068;-54
2023/04/04 12:20:22;;;;;;;4.53;1.20;;;;;;;;;;4991160;28;20058;-49
2023/04/04 12:22:50;;;;;;;2.85;1.30;;;;;;;;;;4990586;28;20137;-51
2023/04/04 12:25:18;;;;;;;2.60;1.40;;;;;;;;;;4984072;28;20046;-56
2023/04/04 12:27:52;;;;;;;4.65;1.35;;;;;;;;;;4982307;28;20092;-55
2023/04/04 12:30:20;;;;;;;2.80;1.13;;;;;;;;;;4983605;28;20145;-53
2023/04/04 12:32:48;;;;;;;5.63;1.60;;;;;;;;;;4987455;28;20141;-54
2023/04/04 12:35:23;;;;;;;5.47;1.35;;;;;;;;;;4987634;28;20063;-54
2023/04/04 12:37:57;;;;;;;1.90;1.10;;;;;;;;;;4987577;28;20558;-54
2023/04/04 12:40:36;;;;;;;2.17;1.17;;;;;;;;;;4986180;28;20943;-53
2023/04/04 12:43:05;;;;;;;3.78;1.25;;;;;;;;;;4988655;28;20082;-50
2023/04/04 12:45:39;;;;;;;1.60;1.00;;;;;;;;;;4990533;28;20068;-55
2023/04/04 12:48:12;;;;;;;5.10;1.40;;;;;;;;;;4983575;28;20050;-52
2023/04/04 12:50:51;;;;;;;3.33;1.38;;;;;;;;;;4985645;28;21614;-57
2023/04/04 12:53:22;;;;;;;4.47;1.05;;;;;;;;;;4988457;28;20050;-62
2023/04/04 12:56:01;;;;;;;3.55;1.55;;;;;;;;;;4988240;28;20058;-62
2023/04/04 12:58:28;;;;;;;4.25;1.42;;;;;;;;;;4988547;28;20074;-62
2023/04/04 13:01:28;;;;;;;2.25;1.10;;;;;;;;;;4983824;28;20042;-62
2023/04/04 13:04:05;;;;;;;3.55;1.27;;;;;;;;;;4986654;28;20053;-53
2023/04/04 13:06:40;;;;;;;2.20;1.00;;;;;;;;;;4982132;28;20066;-56
2023/04/04 13:09:15;;;;;;;1.65;0.90;;;;;;;;;;4986519;28;20105;-57
2023/04/04 13:11:57;;;;;;;2.47;1.00;;;;;;;;;;4987865;28;20050;-54
2023/04/04 13:14:50;;;;;;;3.72;1.30;;;;;;;;;;4984960;28;20092;-56
2023/04/04 13:17:25;;;;;;;3.00;1.25;;;;;;;;;;4983956;28;20063;-56
2023/04/04 13:19:53;;;;;;;2.90;1.40;;;;;;;;;;4986390;28;20096;-62
2023/04/04 13:22:20;;;;;;;2.38;1.10;;;;;;;;;;4987184;28;20559;-60
2023/04/04 13:24:53;;;;;;;2.85;0.93;;;;;;;;;;4980027;28;20055;-63
2023/04/04 13:27:21;;;;;;;3.72;1.00;;;;;;;;;;4986234;28;20419;-63
2023/04/04 13:29:55;;;;;;;2.92;1.00;;;;;;;;;;4987304;28;20172;-62
2023/04/04 13:32:22;;;;;;;3.42;1.30;;;;;;;;;;4986828;28;20054;-62
2023/04/04 13:34:49;;;;;;;2.83;1.25;;;;;;;;;;4987091;28;20054;-62
2023/04/04 13:37:25;;;;;;;2.20;1.10;;;;;;;;;;4984348;28;20501;-62
2023/04/04 13:39:52;;;;;;;3.85;1.55;;;;;;;;;;4988491;28;20057;-60
2023/04/04 13:42:29;;;;;;;2.13;0.80;;;;;;;;;;4982454;28;20060;-62
2023/04/04 13:44:56;;;;;;;5.63;1.05;;;;;;;;;;4983035;28;20578;-62
2023/04/04 13:47:26;;;;;;;3.40;1.08;;;;;;;;;;4987496;28;20457;-62
2023/04/04 13:50:21;;;;;;;3.38;1.00;;;;;;;;;;4987671;28;20066;-62
2023/04/04 13:52:55;;;;;;;3.78;0.80;;;;;;;;;;4986029;28;20050;-62
2023/04/04 13:55:29;;;;;;;1.58;1.15;;;;;;;;;;4986935;28;20153;-62
2023/04/04 13:57:56;;;;;;;1.45;1.00;;;;;;;;;;4989098;28;20196;-60
2023/04/04 14:00:24;;;;;;;2.85;1.10;;;;;;;;;;4971033;28;20054;-60
2023/04/04 14:03:05;;;;;;;1.98;0.90;;;;;;;;;;4983678;28;20548;-60
2023/04/04 14:05:32;;;;;;;2.03;1.00;;;;;;;;;;4993258;28;20081;-62
2023/04/04 14:08:07;;;;;;;0.85;0.70;;;;;;;;;;4970995;28;20065;-62
2023/04/04 14:10:34;;;;;;;1.38;0.80;;;;;;;;;;4994535;28;20057;-58
2023/04/04 14:13:02;;;;;;;2.13;0.98;;;;;;;;;;4972085;28;20537;-58
2023/04/04 14:15:36;;;;;;;1.58;0.70;;;;;;;;;;4984984;28;20142;-58
2023/04/04 14:18:03;;;;;;;1.63;1.02;;;;;;;;;;4984197;28;20101;-58
2023/04/04 14:20:37;;;;;;;2.30;0.95;;;;;;;;;;4989886;28;20129;-58
2023/04/04 14:23:04;;;;;;;2.17;0.95;;;;;;;;;;4989943;28;20056;-56
2023/04/04 14:25:31;;;;;;;2.45;0.80;;;;;;;;;;4991542;28;20592;-62
2023/04/04 14:28:06;;;;;;;3.17;0.80;;;;;;;;;;4982798;28;20137;-62
2023/04/04 14:30:33;;;;;;;;;;;;;;;;;;4986469;28;20164;-62
2023/04/04 14:33:14;;;;;;;2.40;0.63;;;;;;;;;;4986560;28;19928;-62
2023/04/04 14:35:42;;;;;;;2.45;0.98;;;;;;;;;;4987539;28;20089;-55
2023/04/04 14:38:09;;;;;;;3.78;0.90;;;;;;;;;;4988735;28;20042;-60
2023/04/04 14:40:44;;;;;;;2.15;0.80;;;;;;;;;;4983954;28;20137;-59
2023/04/04 14:43:11;;;;;;;3.28;0.60;;;;;;;;;;4985891;28;20050;-57
2023/04/04 14:45:41;;;;;;;0.80;0.70;;;;;;;;;;4983886;28;20138;-58
2023/04/04 14:48:15;;;;;;;0.50;0.50;;;;;;;;;;4984521;28;20050;-56
2023/04/04 14:50:42;;;;;;;0.75;0.52;;;;;;;;;;4987863;28;20098;-58
2023/04/04 14:53:16;;;;;;;0.75;0.57;;;;;;;;;;4987694;28;20085;-56
2023/04/04 14:55:44;;;;;;;0.82;0.60;;;;;;;;;;4982422;28;20623;-61
2023/04/04 14:58:11;;;;;;;1.58;0.70;;;;;;;;;;4985723;28;20064;-61
2023/04/04 15:00:45;;;;;;;1.85;0.68;;;;;;;;;;4990620;28;20054;-61
2023/04/04 15:03:13;;;;;;;1.20;0.93;;;;;;;;;;4991347;28;20501;-62
2023/04/04 15:05:47;;;;;;;3.28;0.93;;;;;;;;;;4986582;28;20054;-62
2023/04/04 15:08:14;;;;;;;1.67;0.80;;;;;;;;;;4989914;28;20133;-60
2023/04/04 15:10:42;;;;;;;1.17;0.80;;;;;;;;;;4990984;28;20068;-59
2023/04/04 15:13:15;;;;;;;0.65;0.60;;;;;;;;;;4988360;28;20061;-59
2023/04/04 15:15:43;;;;;;;1.75;1.00;;;;;;;;;;4986687;28;20071;-60